sensor_id;sensor_type;location;lat;lon;timestamp;P1;durP1;ratioP1;P2;durP2;ratioP2
8708;SDS011;4391;48.678;9.280;2022-12-18T00:01:58;37.95;;;15.10;;
8708;SDS011;4391;48.678;9.280;2022-12-18T00:04:25;38.58;;;13.13;;
8708;SDS011;4391;48.678;9.280;2022-12-18T00:06:54;29.07;;;10.47;;
8708;SDS011;4391;48.678;9.280;2022-12-18T00:09:21;34.60;;;13.52;;
8708;SDS011;4391;48.678;9.280;2022-12-18T00:11:48;32.13;;;12.23;;
8708;SDS011;4391;48.678;9.280;2022-12-18T00:14:15;42.92;;;14.00;;
8708;SDS011;4391;48.678;9.280;2022-12-18T00:16:43;44.90;;;14.40;;
8708;SDS011;4391;48.678;9.280;2022-12-18T00:19:10;47.30;;;15.87;;
8708;SDS011;4391;48.678;9.280;2022-12-18T00:21:37;38.10;;;14.10;;
8708;SDS011;4391;48.678;9.280;2022-12-18T00:24:05;29.02;;;11.43;;
8708;SDS011;4391;48.678;9.280;2022-12-18T00:26:34;33.40;;;12.35;;
8708;SDS011;4391;48.678;9.280;2022-12-18T00:29:03;40.20;;;12.90;;
8708;SDS011;4391;48.678;9.280;2022-12-18T00:31:31;30.90;;;11.37;;
8708;SDS011;4391;48.678;9.280;2022-12-18T00:33:59;40.20;;;13.20;;
8708;SDS011;4391;48.678;9.280;2022-12-18T00:36:26;37.85;;;13.95;;
8708;SDS011;4391;48.678;9.280;2022-12-18T00:38:55;39.08;;;13.38;;
8708;SDS011;4391;48.678;9.280;2022-12-18T00:41:24;41.10;;;13.93;;
8708;SDS011;4391;48.678;9.280;2022-12-18T00:44:09;37.20;;;13.47;;
8708;SDS011;4391;48.678;9.280;2022-12-18T00:46:37;30.48;;;10.82;;
8708;SDS011;4391;48.678;9.280;2022-12-18T00:49:04;32.83;;;11.98;;
8708;SDS011;4391;48.678;9.280;2022-12-18T00:51:30;28.08;;;12.02;;
8708;SDS011;4391;48.678;9.280;2022-12-18T00:53:57;36.75;;;12.70;;
8708;SDS011;4391;48.678;9.280;2022-12-18T00:56:25;31.57;;;10.37;;
8708;SDS011;4391;48.678;9.280;2022-12-18T00:58:52;33.22;;;12.25;;
8708;SDS011;4391;48.678;9.280;2022-12-18T01:01:19;32.90;;;11.65;;
8708;SDS011;4391;48.678;9.280;2022-12-18T01:03:46;25.08;;;8.73;;
8708;SDS011;4391;48.678;9.280;2022-12-18T01:06:14;32.17;;;12.02;;
8708;SDS011;4391;48.678;9.280;2022-12-18T01:08:42;21.87;;;9.53;;
8708;SDS011;4391;48.678;9.280;2022-12-18T01:11:09;30.02;;;10.75;;
8708;SDS011;4391;48.678;9.280;2022-12-18T01:13:39;27.27;;;10.93;;
8708;SDS011;4391;48.678;9.280;2022-12-18T01:16:06;26.08;;;9.98;;
8708;SDS011;4391;48.678;9.280;2022-12-18T01:18:33;23.20;;;9.82;;
8708;SDS011;4391;48.678;9.280;2022-12-18T01:21:05;26.90;;;10.63;;
8708;SDS011;4391;48.678;9.280;2022-12-18T01:23:32;21.38;;;10.45;;
8708;SDS011;4391;48.678;9.280;2022-12-18T01:26:03;35.35;;;12.23;;
8708;SDS011;4391;48.678;9.280;2022-12-18T01:28:31;33.47;;;12.68;;
8708;SDS011;4391;48.678;9.280;2022-12-18T01:31:09;20.42;;;8.25;;
8708;SDS011;4391;48.678;9.280;2022-12-18T01:33:38;21.60;;;8.87;;
8708;SDS011;4391;48.678;9.280;2022-12-18T01:36:05;30.52;;;10.00;;
8708;SDS011;4391;48.678;9.280;2022-12-18T01:38:32;26.52;;;9.13;;
8708;SDS011;4391;48.678;9.280;2022-12-18T01:40:59;30.08;;;10.48;;
8708;SDS011;4391;48.678;9.280;2022-12-18T01:43:40;25.92;;;10.10;;
8708;SDS011;4391;48.678;9.280;2022-12-18T01:46:09;27.43;;;8.90;;
8708;SDS011;4391;48.678;9.280;2022-12-18T01:48:36;27.65;;;10.77;;
8708;SDS011;4391;48.678;9.280;2022-12-18T01:53:35;25.48;;;7.82;;
8708;SDS011;4391;48.678;9.280;2022-12-18T01:56:03;27.90;;;12.13;;
8708;SDS011;4391;48.678;9.280;2022-12-18T01:58:35;32.87;;;10.63;;
8708;SDS011;4391;48.678;9.280;2022-12-18T02:01:08;35.10;;;12.30;;
8708;SDS011;4391;48.678;9.280;2022-12-18T02:03:37;39.25;;;12.65;;
8708;SDS011;4391;48.678;9.280;2022-12-18T02:06:06;28.45;;;10.93;;
8708;SDS011;4391;48.678;9.280;2022-12-18T02:08:39;26.77;;;10.63;;
8708;SDS011;4391;48.678;9.280;2022-12-18T02:11:14;27.10;;;11.93;;
8708;SDS011;4391;48.678;9.280;2022-12-18T02:13:51;30.23;;;9.98;;
8708;SDS011;4391;48.678;9.280;2022-12-18T02:16:23;31.00;;;11.57;;
8708;SDS011;4391;48.678;9.280;2022-12-18T02:18:55;33.40;;;10.63;;
8708;SDS011;4391;48.678;9.280;2022-12-18T02:21:27;31.00;;;9.70;;
8708;SDS011;4391;48.678;9.280;2022-12-18T02:24:02;25.43;;;10.47;;
8708;SDS011;4391;48.678;9.280;2022-12-18T02:26:42;27.50;;;10.77;;
8708;SDS011;4391;48.678;9.280;2022-12-18T02:29:13;21.33;;;9.75;;
8708;SDS011;4391;48.678;9.280;2022-12-18T02:31:49;24.60;;;10.88;;
8708;SDS011;4391;48.678;9.280;2022-12-18T02:34:18;28.98;;;10.27;;
8708;SDS011;4391;48.678;9.280;2022-12-18T02:36:48;31.17;;;11.03;;
8708;SDS011;4391;48.678;9.280;2022-12-18T02:39:17;39.60;;;13.32;;
8708;SDS011;4391;48.678;9.280;2022-12-18T02:41:48;38.88;;;13.57;;
8708;SDS011;4391;48.678;9.280;2022-12-18T02:44:15;30.92;;;11.73;;
8708;SDS011;4391;48.678;9.280;2022-12-18T02:46:42;40.97;;;13.98;;
8708;SDS011;4391;48.678;9.280;2022-12-18T02:49:12;33.00;;;12.57;;
8708;SDS011;4391;48.678;9.280;2022-12-18T02:51:50;29.58;;;10.50;;
8708;SDS011;4391;48.678;9.280;2022-12-18T02:54:36;31.08;;;9.20;;
8708;SDS011;4391;48.678;9.280;2022-12-18T02:57:17;24.02;;;8.30;;
8708;SDS011;4391;48.678;9.280;2022-12-18T02:59:49;29.13;;;9.40;;
8708;SDS011;4391;48.678;9.280;2022-12-18T03:02:23;25.33;;;9.47;;
8708;SDS011;4391;48.678;9.280;2022-12-18T03:04:56;27.77;;;10.05;;
8708;SDS011;4391;48.678;9.280;2022-12-18T03:07:29;26.77;;;9.52;;
8708;SDS011;4391;48.678;9.280;2022-12-18T03:10:03;23.23;;;9.02;;
8708;SDS011;4391;48.678;9.280;2022-12-18T03:12:35;28.58;;;10.27;;
8708;SDS011;4391;48.678;9.280;2022-12-18T03:15:08;19.37;;;8.17;;
8708;SDS011;4391;48.678;9.280;2022-12-18T03:17:40;19.48;;;9.13;;
8708;SDS011;4391;48.678;9.280;2022-12-18T03:20:12;28.33;;;10.18;;
8708;SDS011;4391;48.678;9.280;2022-12-18T03:22:41;26.98;;;10.73;;
8708;SDS011;4391;48.678;9.280;2022-12-18T03:25:11;28.52;;;9.85;;
8708;SDS011;4391;48.678;9.280;2022-12-18T03:27:42;18.63;;;8.07;;
8708;SDS011;4391;48.678;9.280;2022-12-18T03:30:12;29.10;;;10.18;;
8708;SDS011;4391;48.678;9.280;2022-12-18T03:32:41;26.65;;;10.20;;
8708;SDS011;4391;48.678;9.280;2022-12-18T03:35:13;27.52;;;10.13;;
8708;SDS011;4391;48.678;9.280;2022-12-18T03:37:43;25.25;;;8.73;;
8708;SDS011;4391;48.678;9.280;2022-12-18T03:40:10;23.53;;;9.07;;
8708;SDS011;4391;48.678;9.280;2022-12-18T03:42:39;26.00;;;10.10;;
8708;SDS011;4391;48.678;9.280;2022-12-18T03:45:13;21.13;;;9.95;;
8708;SDS011;4391;48.678;9.280;2022-12-18T03:47:48;28.10;;;9.60;;
8708;SDS011;4391;48.678;9.280;2022-12-18T03:50:26;24.00;;;8.93;;
8708;SDS011;4391;48.678;9.280;2022-12-18T03:53:02;27.60;;;8.03;;
8708;SDS011;4391;48.678;9.280;2022-12-18T03:55:40;25.02;;;9.38;;
8708;SDS011;4391;48.678;9.280;2022-12-18T03:58:10;22.58;;;7.38;;
8708;SDS011;4391;48.678;9.280;2022-12-18T04:00:39;21.90;;;8.90;;
8708;SDS011;4391;48.678;9.280;2022-12-18T04:03:07;17.60;;;7.50;;
8708;SDS011;4391;48.678;9.280;2022-12-18T04:05:35;25.60;;;8.77;;
8708;SDS011;4391;48.678;9.280;2022-12-18T04:08:03;25.73;;;9.02;;
8708;SDS011;4391;48.678;9.280;2022-12-18T04:10:31;20.25;;;6.82;;
8708;SDS011;4391;48.678;9.280;2022-12-18T04:12:58;25.58;;;9.20;;
8708;SDS011;4391;48.678;9.280;2022-12-18T04:15:26;21.83;;;8.10;;
8708;SDS011;4391;48.678;9.280;2022-12-18T04:17:53;23.53;;;6.90;;
8708;SDS011;4391;48.678;9.280;2022-12-18T04:20:20;28.60;;;8.27;;
8708;SDS011;4391;48.678;9.280;2022-12-18T04:22:46;19.80;;;8.25;;
8708;SDS011;4391;48.678;9.280;2022-12-18T04:25:13;14.95;;;7.25;;
8708;SDS011;4391;48.678;9.280;2022-12-18T04:27:40;20.73;;;7.45;;
8708;SDS011;4391;48.678;9.280;2022-12-18T04:30:07;15.27;;;7.37;;
8708;SDS011;4391;48.678;9.280;2022-12-18T04:32:36;17.60;;;7.55;;
8708;SDS011;4391;48.678;9.280;2022-12-18T04:35:03;10.60;;;5.15;;
8708;SDS011;4391;48.678;9.280;2022-12-18T04:37:33;19.88;;;9.07;;
8708;SDS011;4391;48.678;9.280;2022-12-18T04:40:00;27.15;;;10.40;;
8708;SDS011;4391;48.678;9.280;2022-12-18T04:42:27;18.07;;;6.33;;
8708;SDS011;4391;48.678;9.280;2022-12-18T04:44:53;16.23;;;7.25;;
8708;SDS011;4391;48.678;9.280;2022-12-18T04:47:20;22.05;;;8.93;;
8708;SDS011;4391;48.678;9.280;2022-12-18T04:49:48;18.48;;;6.32;;
8708;SDS011;4391;48.678;9.280;2022-12-18T04:52:15;18.55;;;7.85;;
8708;SDS011;4391;48.678;9.280;2022-12-18T04:54:42;25.60;;;8.33;;
8708;SDS011;4391;48.678;9.280;2022-12-18T04:57:09;20.10;;;8.65;;
8708;SDS011;4391;48.678;9.280;2022-12-18T04:59:36;22.20;;;7.43;;
8708;SDS011;4391;48.678;9.280;2022-12-18T05:02:02;20.20;;;7.93;;
8708;SDS011;4391;48.678;9.280;2022-12-18T05:04:29;20.45;;;7.72;;
8708;SDS011;4391;48.678;9.280;2022-12-18T05:06:57;30.53;;;10.63;;
8708;SDS011;4391;48.678;9.280;2022-12-18T05:09:24;17.48;;;4.63;;
8708;SDS011;4391;48.678;9.280;2022-12-18T05:11:51;24.58;;;9.18;;
8708;SDS011;4391;48.678;9.280;2022-12-18T05:14:18;28.48;;;9.95;;
8708;SDS011;4391;48.678;9.280;2022-12-18T05:16:45;22.73;;;7.78;;
8708;SDS011;4391;48.678;9.280;2022-12-18T05:19:12;19.40;;;7.50;;
8708;SDS011;4391;48.678;9.280;2022-12-18T05:21:39;24.88;;;8.20;;
8708;SDS011;4391;48.678;9.280;2022-12-18T05:24:07;24.95;;;7.45;;
8708;SDS011;4391;48.678;9.280;2022-12-18T05:26:34;19.23;;;7.60;;
8708;SDS011;4391;48.678;9.280;2022-12-18T05:29:01;19.05;;;8.63;;
8708;SDS011;4391;48.678;9.280;2022-12-18T05:31:28;24.27;;;9.00;;
8708;SDS011;4391;48.678;9.280;2022-12-18T05:33:54;27.05;;;8.90;;
8708;SDS011;4391;48.678;9.280;2022-12-18T05:36:21;22.23;;;8.23;;
8708;SDS011;4391;48.678;9.280;2022-12-18T05:38:48;20.10;;;8.63;;
8708;SDS011;4391;48.678;9.280;2022-12-18T05:41:16;17.23;;;8.30;;
8708;SDS011;4391;48.678;9.280;2022-12-18T05:43:43;23.93;;;7.33;;
8708;SDS011;4391;48.678;9.280;2022-12-18T05:46:11;24.52;;;10.00;;
8708;SDS011;4391;48.678;9.280;2022-12-18T05:48:39;22.10;;;9.68;;
8708;SDS011;4391;48.678;9.280;2022-12-18T05:51:07;19.48;;;8.10;;
8708;SDS011;4391;48.678;9.280;2022-12-18T05:53:36;23.70;;;8.70;;
8708;SDS011;4391;48.678;9.280;2022-12-18T05:56:04;20.53;;;6.90;;
8708;SDS011;4391;48.678;9.280;2022-12-18T05:58:33;22.48;;;6.13;;
8708;SDS011;4391;48.678;9.280;2022-12-18T06:01:05;19.75;;;7.95;;
8708;SDS011;4391;48.678;9.280;2022-12-18T06:03:33;13.70;;;6.97;;
8708;SDS011;4391;48.678;9.280;2022-12-18T06:06:00;21.83;;;8.55;;
8708;SDS011;4391;48.678;9.280;2022-12-18T06:08:27;14.30;;;6.50;;
8708;SDS011;4391;48.678;9.280;2022-12-18T06:10:54;31.65;;;7.60;;
8708;SDS011;4391;48.678;9.280;2022-12-18T06:13:21;17.52;;;8.65;;
8708;SDS011;4391;48.678;9.280;2022-12-18T06:15:49;20.92;;;7.30;;
8708;SDS011;4391;48.678;9.280;2022-12-18T06:18:16;31.30;;;8.68;;
8708;SDS011;4391;48.678;9.280;2022-12-18T06:20:42;20.70;;;7.70;;
8708;SDS011;4391;48.678;9.280;2022-12-18T06:23:09;28.05;;;7.90;;
8708;SDS011;4391;48.678;9.280;2022-12-18T06:25:37;16.33;;;6.95;;
8708;SDS011;4391;48.678;9.280;2022-12-18T06:28:04;24.08;;;8.00;;
8708;SDS011;4391;48.678;9.280;2022-12-18T06:30:31;18.92;;;7.18;;
8708;SDS011;4391;48.678;9.280;2022-12-18T06:32:59;18.10;;;7.53;;
8708;SDS011;4391;48.678;9.280;2022-12-18T06:35:26;15.43;;;6.53;;
8708;SDS011;4391;48.678;9.280;2022-12-18T06:37:53;18.23;;;8.68;;
8708;SDS011;4391;48.678;9.280;2022-12-18T06:40:20;20.80;;;7.25;;
8708;SDS011;4391;48.678;9.280;2022-12-18T06:42:47;22.27;;;7.78;;
8708;SDS011;4391;48.678;9.280;2022-12-18T06:45:15;21.77;;;7.87;;
8708;SDS011;4391;48.678;9.280;2022-12-18T06:47:42;20.75;;;7.90;;
8708;SDS011;4391;48.678;9.280;2022-12-18T06:50:10;26.45;;;7.55;;
8708;SDS011;4391;48.678;9.280;2022-12-18T06:52:38;16.10;;;6.85;;
8708;SDS011;4391;48.678;9.280;2022-12-18T06:55:08;25.48;;;8.85;;
8708;SDS011;4391;48.678;9.280;2022-12-18T06:57:36;25.97;;;10.37;;
8708;SDS011;4391;48.678;9.280;2022-12-18T07:00:03;16.88;;;8.65;;
8708;SDS011;4391;48.678;9.280;2022-12-18T07:02:32;23.67;;;8.00;;
8708;SDS011;4391;48.678;9.280;2022-12-18T07:04:58;17.15;;;7.72;;
8708;SDS011;4391;48.678;9.280;2022-12-18T07:07:27;20.67;;;8.35;;
8708;SDS011;4391;48.678;9.280;2022-12-18T07:09:54;19.83;;;8.13;;
8708;SDS011;4391;48.678;9.280;2022-12-18T07:12:21;28.25;;;9.00;;
8708;SDS011;4391;48.678;9.280;2022-12-18T07:14:47;25.20;;;9.00;;
8708;SDS011;4391;48.678;9.280;2022-12-18T07:17:14;22.42;;;8.40;;
8708;SDS011;4391;48.678;9.280;2022-12-18T07:19:41;26.08;;;8.93;;
8708;SDS011;4391;48.678;9.280;2022-12-18T07:22:08;18.47;;;7.20;;
8708;SDS011;4391;48.678;9.280;2022-12-18T07:24:36;17.48;;;7.68;;
8708;SDS011;4391;48.678;9.280;2022-12-18T07:27:03;27.40;;;9.50;;
8708;SDS011;4391;48.678;9.280;2022-12-18T07:29:30;23.17;;;7.57;;
8708;SDS011;4391;48.678;9.280;2022-12-18T07:31:56;18.17;;;9.10;;
8708;SDS011;4391;48.678;9.280;2022-12-18T07:34:23;27.60;;;9.83;;
8708;SDS011;4391;48.678;9.280;2022-12-18T07:36:50;21.38;;;9.50;;
8708;SDS011;4391;48.678;9.280;2022-12-18T07:39:17;25.65;;;9.00;;
8708;SDS011;4391;48.678;9.280;2022-12-18T07:41:45;29.38;;;8.90;;
8708;SDS011;4391;48.678;9.280;2022-12-18T07:44:32;24.73;;;10.07;;
8708;SDS011;4391;48.678;9.280;2022-12-18T07:46:59;24.33;;;10.07;;
8708;SDS011;4391;48.678;9.280;2022-12-18T07:49:25;27.08;;;9.90;;
8708;SDS011;4391;48.678;9.280;2022-12-18T07:51:53;24.45;;;8.35;;
8708;SDS011;4391;48.678;9.280;2022-12-18T07:54:21;21.35;;;8.65;;
8708;SDS011;4391;48.678;9.280;2022-12-18T07:56:49;26.85;;;10.32;;
8708;SDS011;4391;48.678;9.280;2022-12-18T07:59:16;18.63;;;9.07;;
8708;SDS011;4391;48.678;9.280;2022-12-18T08:01:43;23.52;;;8.77;;
8708;SDS011;4391;48.678;9.280;2022-12-18T08:04:10;28.77;;;10.15;;
8708;SDS011;4391;48.678;9.280;2022-12-18T08:06:37;25.40;;;11.50;;
8708;SDS011;4391;48.678;9.280;2022-12-18T08:09:04;20.73;;;9.38;;
8708;SDS011;4391;48.678;9.280;2022-12-18T08:11:30;26.60;;;11.67;;
8708;SDS011;4391;48.678;9.280;2022-12-18T08:13:59;24.95;;;9.35;;
8708;SDS011;4391;48.678;9.280;2022-12-18T08:16:26;29.00;;;9.52;;
8708;SDS011;4391;48.678;9.280;2022-12-18T08:18:53;22.63;;;8.63;;
8708;SDS011;4391;48.678;9.280;2022-12-18T08:21:21;26.70;;;10.23;;
8708;SDS011;4391;48.678;9.280;2022-12-18T08:23:51;25.20;;;11.27;;
8708;SDS011;4391;48.678;9.280;2022-12-18T08:26:19;25.60;;;9.85;;
8708;SDS011;4391;48.678;9.280;2022-12-18T08:28:46;38.63;;;11.80;;
8708;SDS011;4391;48.678;9.280;2022-12-18T08:31:14;33.05;;;12.13;;
8708;SDS011;4391;48.678;9.280;2022-12-18T08:33:41;23.08;;;8.05;;
8708;SDS011;4391;48.678;9.280;2022-12-18T08:36:08;27.43;;;10.47;;
8708;SDS011;4391;48.678;9.280;2022-12-18T08:38:36;28.65;;;9.70;;
8708;SDS011;4391;48.678;9.280;2022-12-18T08:41:03;29.35;;;9.20;;
8708;SDS011;4391;48.678;9.280;2022-12-18T08:43:32;28.88;;;10.10;;
8708;SDS011;4391;48.678;9.280;2022-12-18T08:46:34;33.72;;;10.23;;
8708;SDS011;4391;48.678;9.280;2022-12-18T08:49:02;25.30;;;11.73;;
8708;SDS011;4391;48.678;9.280;2022-12-18T08:51:30;37.22;;;14.15;;
8708;SDS011;4391;48.678;9.280;2022-12-18T08:53:57;35.55;;;12.68;;
8708;SDS011;4391;48.678;9.280;2022-12-18T08:56:24;35.33;;;11.98;;
8708;SDS011;4391;48.678;9.280;2022-12-18T08:58:51;32.28;;;12.35;;
8708;SDS011;4391;48.678;9.280;2022-12-18T09:01:19;30.92;;;11.70;;
8708;SDS011;4391;48.678;9.280;2022-12-18T09:03:48;32.30;;;12.15;;
8708;SDS011;4391;48.678;9.280;2022-12-18T09:06:15;33.00;;;12.02;;
8708;SDS011;4391;48.678;9.280;2022-12-18T09:08:43;34.40;;;12.98;;
8708;SDS011;4391;48.678;9.280;2022-12-18T09:11:15;33.97;;;12.95;;
8708;SDS011;4391;48.678;9.280;2022-12-18T09:13:46;34.03;;;11.88;;
8708;SDS011;4391;48.678;9.280;2022-12-18T09:16:12;38.03;;;14.48;;
8708;SDS011;4391;48.678;9.280;2022-12-18T09:18:41;29.50;;;11.80;;
8708;SDS011;4391;48.678;9.280;2022-12-18T09:21:10;40.33;;;13.38;;
8708;SDS011;4391;48.678;9.280;2022-12-18T09:23:40;35.45;;;14.00;;
8708;SDS011;4391;48.678;9.280;2022-12-18T09:26:09;37.53;;;14.73;;
8708;SDS011;4391;48.678;9.280;2022-12-18T09:28:36;43.20;;;17.15;;
8708;SDS011;4391;48.678;9.280;2022-12-18T09:31:04;52.50;;;18.55;;
8708;SDS011;4391;48.678;9.280;2022-12-18T09:33:33;45.72;;;18.23;;
8708;SDS011;4391;48.678;9.280;2022-12-18T09:36:00;54.03;;;17.15;;
8708;SDS011;4391;48.678;9.280;2022-12-18T09:38:30;45.17;;;16.70;;
8708;SDS011;4391;48.678;9.280;2022-12-18T09:40:58;35.80;;;14.40;;
8708;SDS011;4391;48.678;9.280;2022-12-18T09:43:30;35.15;;;13.65;;
8708;SDS011;4391;48.678;9.280;2022-12-18T09:46:04;32.10;;;12.43;;
8708;SDS011;4391;48.678;9.280;2022-12-18T09:48:34;37.22;;;14.35;;
8708;SDS011;4391;48.678;9.280;2022-12-18T09:51:04;38.47;;;13.85;;
8708;SDS011;4391;48.678;9.280;2022-12-18T09:53:38;39.70;;;14.43;;
8708;SDS011;4391;48.678;9.280;2022-12-18T09:56:10;34.58;;;13.10;;
8708;SDS011;4391;48.678;9.280;2022-12-18T09:58:43;38.55;;;14.27;;
8708;SDS011;4391;48.678;9.280;2022-12-18T10:01:16;34.95;;;13.02;;
8708;SDS011;4391;48.678;9.280;2022-12-18T10:03:48;33.63;;;13.77;;
8708;SDS011;4391;48.678;9.280;2022-12-18T10:06:18;33.80;;;13.03;;
8708;SDS011;4391;48.678;9.280;2022-12-18T10:08:53;33.88;;;14.15;;
8708;SDS011;4391;48.678;9.280;2022-12-18T10:11:29;34.72;;;13.25;;
8708;SDS011;4391;48.678;9.280;2022-12-18T10:14:05;33.25;;;13.80;;
8708;SDS011;4391;48.678;9.280;2022-12-18T10:16:40;36.00;;;14.80;;
8708;SDS011;4391;48.678;9.280;2022-12-18T10:19:18;38.43;;;16.10;;
8708;SDS011;4391;48.678;9.280;2022-12-18T10:21:56;34.97;;;14.68;;
8708;SDS011;4391;48.678;9.280;2022-12-18T10:24:32;37.92;;;15.50;;
8708;SDS011;4391;48.678;9.280;2022-12-18T10:27:06;37.50;;;16.05;;
8708;SDS011;4391;48.678;9.280;2022-12-18T10:29:38;34.47;;;14.90;;
8708;SDS011;4391;48.678;9.280;2022-12-18T10:32:06;34.80;;;15.60;;
8708;SDS011;4391;48.678;9.280;2022-12-18T10:34:35;48.97;;;19.55;;
8708;SDS011;4391;48.678;9.280;2022-12-18T10:37:03;46.10;;;17.90;;
8708;SDS011;4391;48.678;9.280;2022-12-18T10:39:37;47.80;;;18.85;;
8708;SDS011;4391;48.678;9.280;2022-12-18T10:42:09;44.53;;;18.67;;
8708;SDS011;4391;48.678;9.280;2022-12-18T10:44:40;45.63;;;19.47;;
8708;SDS011;4391;48.678;9.280;2022-12-18T10:47:11;43.50;;;17.98;;
8708;SDS011;4391;48.678;9.280;2022-12-18T10:49:42;46.90;;;19.35;;
8708;SDS011;4391;48.678;9.280;2022-12-18T10:52:15;46.75;;;18.25;;
8708;SDS011;4391;48.678;9.280;2022-12-18T10:54:49;41.53;;;18.20;;
8708;SDS011;4391;48.678;9.280;2022-12-18T10:57:28;48.10;;;19.97;;
8708;SDS011;4391;48.678;9.280;2022-12-18T10:59:58;42.42;;;17.38;;
8708;SDS011;4391;48.678;9.280;2022-12-18T11:02:27;48.03;;;19.45;;
8708;SDS011;4391;48.678;9.280;2022-12-18T11:04:59;47.63;;;20.77;;
8708;SDS011;4391;48.678;9.280;2022-12-18T11:07:27;51.60;;;22.40;;
8708;SDS011;4391;48.678;9.280;2022-12-18T11:10:17;63.93;;;24.80;;
8708;SDS011;4391;48.678;9.280;2022-12-18T11:12:44;61.17;;;25.95;;
8708;SDS011;4391;48.678;9.280;2022-12-18T11:15:15;57.20;;;24.08;;
8708;SDS011;4391;48.678;9.280;2022-12-18T11:17:46;55.45;;;24.38;;
8708;SDS011;4391;48.678;9.280;2022-12-18T11:20:20;53.75;;;22.77;;
8708;SDS011;4391;48.678;9.280;2022-12-18T11:22:55;52.17;;;22.60;;
8708;SDS011;4391;48.678;9.280;2022-12-18T11:25:28;47.90;;;21.02;;
8708;SDS011;4391;48.678;9.280;2022-12-18T11:27:56;46.40;;;20.10;;
8708;SDS011;4391;48.678;9.280;2022-12-18T11:30:25;39.72;;;18.15;;
8708;SDS011;4391;48.678;9.280;2022-12-18T11:32:55;36.95;;;17.60;;
8708;SDS011;4391;48.678;9.280;2022-12-18T11:35:30;42.30;;;17.40;;
8708;SDS011;4391;48.678;9.280;2022-12-18T11:38:05;35.78;;;16.95;;
8708;SDS011;4391;48.678;9.280;2022-12-18T11:40:42;33.67;;;16.77;;
8708;SDS011;4391;48.678;9.280;2022-12-18T11:43:13;37.35;;;16.95;;
8708;SDS011;4391;48.678;9.280;2022-12-18T11:45:46;38.00;;;16.90;;
8708;SDS011;4391;48.678;9.280;2022-12-18T11:48:18;36.77;;;17.37;;
8708;SDS011;4391;48.678;9.280;2022-12-18T11:50:49;39.40;;;17.88;;
8708;SDS011;4391;48.678;9.280;2022-12-18T11:53:17;38.63;;;17.33;;
8708;SDS011;4391;48.678;9.280;2022-12-18T11:55:49;37.00;;;17.77;;
8708;SDS011;4391;48.678;9.280;2022-12-18T11:58:29;38.30;;;17.75;;
8708;SDS011;4391;48.678;9.280;2022-12-18T12:01:11;36.43;;;17.57;;
8708;SDS011;4391;48.678;9.280;2022-12-18T12:06:49;44.55;;;21.15;;
8708;SDS011;4391;48.678;9.280;2022-12-18T12:09:26;45.42;;;21.23;;
8708;SDS011;4391;48.678;9.280;2022-12-18T12:12:10;46.38;;;22.58;;
8708;SDS011;4391;48.678;9.280;2022-12-18T12:14:54;45.20;;;21.83;;
8708;SDS011;4391;48.678;9.280;2022-12-18T12:17:30;45.83;;;21.25;;
8708;SDS011;4391;48.678;9.280;2022-12-18T12:20:07;50.30;;;22.88;;
8708;SDS011;4391;48.678;9.280;2022-12-18T12:22:43;45.75;;;22.67;;
8708;SDS011;4391;48.678;9.280;2022-12-18T12:25:19;47.20;;;23.30;;
8708;SDS011;4391;48.678;9.280;2022-12-18T12:27:58;50.27;;;22.47;;
8708;SDS011;4391;48.678;9.280;2022-12-18T12:30:41;48.22;;;22.08;;
8708;SDS011;4391;48.678;9.280;2022-12-18T12:33:16;48.63;;;24.10;;
8708;SDS011;4391;48.678;9.280;2022-12-18T12:35:55;50.47;;;22.63;;
8708;SDS011;4391;48.678;9.280;2022-12-18T12:38:31;49.85;;;24.77;;
8708;SDS011;4391;48.678;9.280;2022-12-18T12:41:04;46.50;;;20.97;;
8708;SDS011;4391;48.678;9.280;2022-12-18T12:43:55;54.08;;;27.55;;
8708;SDS011;4391;48.678;9.280;2022-12-18T12:46:23;53.28;;;24.98;;
8708;SDS011;4391;48.678;9.280;2022-12-18T12:48:52;56.05;;;23.10;;
8708;SDS011;4391;48.678;9.280;2022-12-18T12:51:22;50.97;;;23.38;;
8708;SDS011;4391;48.678;9.280;2022-12-18T12:53:52;48.40;;;22.70;;
8708;SDS011;4391;48.678;9.280;2022-12-18T12:56:22;49.78;;;21.17;;
8708;SDS011;4391;48.678;9.280;2022-12-18T12:58:59;45.92;;;20.15;;
8708;SDS011;4391;48.678;9.280;2022-12-18T13:01:36;46.97;;;20.98;;
8708;SDS011;4391;48.678;9.280;2022-12-18T13:04:14;46.25;;;20.67;;
8708;SDS011;4391;48.678;9.280;2022-12-18T13:06:48;42.03;;;19.27;;
8708;SDS011;4391;48.678;9.280;2022-12-18T13:09:19;46.97;;;19.48;;
8708;SDS011;4391;48.678;9.280;2022-12-18T13:11:46;42.70;;;17.55;;
8708;SDS011;4391;48.678;9.280;2022-12-18T13:14:33;48.40;;;18.67;;
8708;SDS011;4391;48.678;9.280;2022-12-18T13:20:06;43.30;;;18.93;;
8708;SDS011;4391;48.678;9.280;2022-12-18T13:22:36;45.70;;;17.58;;
8708;SDS011;4391;48.678;9.280;2022-12-18T13:28:07;35.33;;;15.85;;
8708;SDS011;4391;48.678;9.280;2022-12-18T13:36:15;42.83;;;18.55;;
8708;SDS011;4391;48.678;9.280;2022-12-18T13:41:50;41.30;;;18.27;;
8708;SDS011;4391;48.678;9.280;2022-12-18T13:44:24;43.17;;;18.33;;
8708;SDS011;4391;48.678;9.280;2022-12-18T13:46:58;43.27;;;16.50;;
8708;SDS011;4391;48.678;9.280;2022-12-18T13:49:28;40.00;;;15.88;;
8708;SDS011;4391;48.678;9.280;2022-12-18T13:52:02;41.75;;;16.70;;
8708;SDS011;4391;48.678;9.280;2022-12-18T13:54:41;37.00;;;15.65;;
8708;SDS011;4391;48.678;9.280;2022-12-18T13:57:24;40.97;;;16.45;;
8708;SDS011;4391;48.678;9.280;2022-12-18T13:59:54;41.00;;;16.40;;
8708;SDS011;4391;48.678;9.280;2022-12-18T14:02:23;41.15;;;16.42;;
8708;SDS011;4391;48.678;9.280;2022-12-18T14:04:51;42.15;;;15.93;;
8708;SDS011;4391;48.678;9.280;2022-12-18T14:07:19;40.70;;;16.05;;
8708;SDS011;4391;48.678;9.280;2022-12-18T14:09:49;39.88;;;15.90;;
8708;SDS011;4391;48.678;9.280;2022-12-18T14:12:19;45.80;;;16.93;;
8708;SDS011;4391;48.678;9.280;2022-12-18T14:15:06;40.58;;;15.65;;
8708;SDS011;4391;48.678;9.280;2022-12-18T14:17:48;46.00;;;16.77;;
8708;SDS011;4391;48.678;9.280;2022-12-18T14:20:16;40.88;;;17.52;;
8708;SDS011;4391;48.678;9.280;2022-12-18T14:22:44;39.88;;;16.02;;
8708;SDS011;4391;48.678;9.280;2022-12-18T14:25:17;40.37;;;15.60;;
8708;SDS011;4391;48.678;9.280;2022-12-18T14:27:46;41.88;;;15.75;;
8708;SDS011;4391;48.678;9.280;2022-12-18T14:30:29;39.03;;;15.10;;
8708;SDS011;4391;48.678;9.280;2022-12-18T14:33:05;35.88;;;13.82;;
8708;SDS011;4391;48.678;9.280;2022-12-18T14:35:36;41.38;;;14.80;;
8708;SDS011;4391;48.678;9.280;2022-12-18T14:38:21;39.60;;;15.27;;
8708;SDS011;4391;48.678;9.280;2022-12-18T14:40:53;39.97;;;14.40;;
8708;SDS011;4391;48.678;9.280;2022-12-18T14:43:28;36.45;;;14.70;;
8708;SDS011;4391;48.678;9.280;2022-12-18T14:45:56;39.50;;;14.15;;
8708;SDS011;4391;48.678;9.280;2022-12-18T14:48:35;41.33;;;15.98;;
8708;SDS011;4391;48.678;9.280;2022-12-18T14:51:04;37.43;;;14.90;;
8708;SDS011;4391;48.678;9.280;2022-12-18T14:53:34;46.30;;;17.52;;
8708;SDS011;4391;48.678;9.280;2022-12-18T14:56:03;42.20;;;16.75;;
8708;SDS011;4391;48.678;9.280;2022-12-18T14:58:44;47.47;;;16.70;;
8708;SDS011;4391;48.678;9.280;2022-12-18T15:01:17;42.95;;;16.48;;
8708;SDS011;4391;48.678;9.280;2022-12-18T15:03:54;45.47;;;16.13;;
8708;SDS011;4391;48.678;9.280;2022-12-18T15:06:24;46.30;;;16.55;;
8708;SDS011;4391;48.678;9.280;2022-12-18T15:08:53;38.97;;;14.25;;
8708;SDS011;4391;48.678;9.280;2022-12-18T15:11:25;43.47;;;15.10;;
8708;SDS011;4391;48.678;9.280;2022-12-18T15:13:53;41.97;;;14.20;;
8708;SDS011;4391;48.678;9.280;2022-12-18T15:16:20;42.00;;;15.47;;
8708;SDS011;4391;48.678;9.280;2022-12-18T15:18:47;44.92;;;15.60;;
8708;SDS011;4391;48.678;9.280;2022-12-18T15:21:16;44.75;;;16.20;;
8708;SDS011;4391;48.678;9.280;2022-12-18T15:23:48;40.92;;;14.82;;
8708;SDS011;4391;48.678;9.280;2022-12-18T15:26:17;38.08;;;14.88;;
8708;SDS011;4391;48.678;9.280;2022-12-18T15:28:46;41.17;;;15.30;;
8708;SDS011;4391;48.678;9.280;2022-12-18T15:31:26;42.58;;;15.88;;
8708;SDS011;4391;48.678;9.280;2022-12-18T15:34:08;43.15;;;15.57;;